createdAt,value
2022-12-13T00:01:09.055Z,99844.22
2022-12-13T00:11:10.390Z,99831.47
2022-12-13T00:21:11.673Z,99832.94
2022-12-13T00:31:53.391Z,99828.47
2022-12-13T00:41:34.224Z,99817.63
2022-12-13T00:51:35.536Z,99815.72
2022-12-13T01:01:37.012Z,99798.59
2022-12-13T01:11:38.310Z,99791.63
2022-12-13T01:21:39.596Z,99808.25
2022-12-13T01:31:41.924Z,99800.19
2022-12-13T01:41:43.366Z,99796.88
2022-12-13T01:51:44.600Z,99795.72
2022-12-13T02:01:45.993Z,99792.13
2022-12-13T02:11:47.384Z,99781.81
2022-12-13T02:21:48.638Z,99776.47
2022-12-13T02:31:49.958Z,99779.84
2022-12-13T02:41:51.261Z,99778.06
2022-12-13T02:51:52.511Z,99783.91
2022-12-13T03:01:53.766Z,99771.25
2022-12-13T03:12:30.083Z,99757.88
2022-12-13T03:22:31.378Z,99745.03
2022-12-13T03:32:32.735Z,99738.47
2022-12-13T03:42:33.984Z,99737.06
2022-12-13T03:52:35.235Z,99731.34
2022-12-13T04:02:36.593Z,99731.84
2022-12-13T04:12:56.853Z,99736.25
2022-12-13T04:23:09.969Z,99726.94
2022-12-13T04:33:11.881Z,99727.38
2022-12-13T04:43:13.201Z,99734.88
2022-12-13T04:53:14.951Z,99739.97
2022-12-13T05:03:16.297Z,99737.88
2022-12-13T05:13:17.556Z,99728.03
2022-12-13T05:23:22.416Z,99736.31
2022-12-13T05:33:24.546Z,99737.19
2022-12-13T05:43:43.215Z,99730.72
2022-12-13T05:53:48.579Z,99727.97
2022-12-13T06:03:53.170Z,99721.09
2022-12-13T06:14:00.619Z,99727.28
2022-12-13T06:24:05.549Z,99716.44
2022-12-13T06:34:14.999Z,99720.72
2022-12-13T06:44:16.677Z,99720.66
2022-12-13T06:54:21.609Z,99729.66
2022-12-13T07:04:28.916Z,99723.16
2022-12-13T07:14:32.127Z,99736.09
2022-12-13T07:24:42.566Z,99763.25
2022-12-13T07:34:44.043Z,99762.53
2022-12-13T07:44:45.379Z,99769.31
2022-12-13T07:54:46.673Z,99769.91
2022-12-13T08:04:54.666Z,99769.91
2022-12-13T08:14:56.535Z,99773.13
2022-12-13T08:24:57.928Z,99772.53
2022-12-13T08:34:59.239Z,99757.81
2022-12-13T08:45:00.516Z,99755.22
2022-12-13T08:55:01.849Z,99761.44
2022-12-13T09:05:03.602Z,99763.38
2022-12-13T09:15:04.857Z,99757.72
2022-12-13T09:25:24.591Z,99757.78
2022-12-13T09:35:26.036Z,99764.97
2022-12-13T09:45:31.959Z,99751.63
2022-12-13T09:55:33.664Z,99758.94
2022-12-13T10:05:39.825Z,99747.00
2022-12-13T10:15:41.748Z,99738.78
2022-12-13T10:25:43.047Z,99720.88
2022-12-13T10:35:44.364Z,99710.09
2022-12-13T10:45:45.713Z,99709.75
2022-12-13T10:55:47.009Z,99717.63
2022-12-13T11:05:50.239Z,99692.38
2022-12-13T11:15:51.475Z,99684.06
2022-12-13T11:25:52.994Z,99677.63
2022-12-13T11:35:55.418Z,99688.22
2022-12-13T11:45:56.781Z,99655.34
2022-12-13T11:55:58.082Z,99649.50
2022-12-13T12:05:59.333Z,99646.59
2022-12-13T12:16:00.701Z,99629.72
2022-12-13T12:26:02.022Z,99621.66
2022-12-13T12:36:03.287Z,99615.31
2022-12-13T12:46:04.618Z,99621.56
2022-12-13T12:56:05.939Z,99612.53
2022-12-13T13:06:07.304Z,99606.75
2022-12-13T13:16:08.586Z,99591.00
2022-12-13T13:26:27.182Z,99599.63
2022-12-13T13:36:30.481Z,99593.63
2022-12-13T13:46:31.767Z,99601.22
2022-12-13T14:18:04.029Z,99596.22
2022-12-13T14:28:05.372Z,99596.06
2022-12-13T14:38:06.742Z,99582.06
2022-12-13T14:48:08.079Z,99593.16
2022-12-13T14:58:09.363Z,99576.78
2022-12-13T15:08:11.486Z,99555.53
2022-12-13T15:18:12.973Z,99551.94
2022-12-13T15:28:18.225Z,99534.56
2022-12-13T15:38:28.526Z,99529.34
2022-12-13T15:48:31.424Z,99520.78
2022-12-13T15:58:32.677Z,99517.56
2022-12-13T16:08:35.601Z,99510.44
2022-12-13T16:18:36.848Z,99513.75
2022-12-13T16:28:38.313Z,99502.63
2022-12-13T16:38:39.737Z,99512.84
2022-12-13T16:48:46.005Z,99504.34
2022-12-13T16:58:50.098Z,99505.31
2022-12-13T17:08:51.996Z,99487.91
2022-12-13T17:19:00.325Z,99479.66
2022-12-13T18:00:52.011Z,99430.78
2022-12-13T18:11:23.545Z,99448.00
2022-12-13T18:21:15.457Z,99433.38
2022-12-13T18:31:20.814Z,99418.84
2022-12-13T18:41:22.327Z,99405.94
2022-12-13T18:51:24.240Z,99374.44
2022-12-13T19:01:36.634Z,99396.69
2022-12-13T19:11:38.195Z,99396.66
2022-12-13T19:21:39.595Z,99381.28
2022-12-13T19:32:05.408Z,99363.16
2022-12-13T19:42:29.796Z,99371.06
2022-12-13T20:14:05.028Z,99312.97
2022-12-13T20:34:42.450Z,99307.19
2022-12-13T20:44:43.908Z,99288.41
2022-12-13T20:54:47.561Z,99284.16
2022-12-13T21:04:48.987Z,99279.84
2022-12-13T21:14:50.299Z,99250.16
2022-12-13T21:24:51.570Z,99224.56
2022-12-13T21:34:52.877Z,99240.81
2022-12-13T21:44:58.911Z,99215.41
2022-12-13T21:55:30.475Z,99182.19
2022-12-13T22:05:24.500Z,99182.19
2022-12-13T22:15:25.758Z,99151.34
2022-12-13T22:25:27.075Z,99153.13
2022-12-13T22:35:28.330Z,99159.28
2022-12-13T22:45:29.720Z,99131.09
2022-12-13T22:55:31.084Z,99124.31
2022-12-13T23:05:32.462Z,99133.69
2022-12-13T23:15:33.769Z,99111.44
2022-12-13T23:25:35.746Z,99131.22
2022-12-13T23:35:37.030Z,99115.94
2022-12-13T23:45:38.268Z,99097.00
2022-12-13T23:55:39.526Z,99090.41
